Load, Kentucky
Current Conditions -  °F | °C
As of 11:55 PM on Friday 28 Nov 2014 (Local Time) from KDWU Reporting Station
Clear Clear  
Wind Chill: 27°   Ceiling: Unl
Heat Index: 32°   Visibility: 10mi
Dew Point: 18°   Wind: 5mph
Humidity: 55%   Direction: 140°SE
Pressure: 30.14"   Gusts: NA
Location:  38.5266°N, 82.9452°W
Report Text: KDWU 290455Z AUTO 14004KT 10SM CLR 00/M08 A3014 RMK AO1
Loading
Personal Weather Stations






























Interactive Weather Map New forecast layout! Learn more

10-Day Weather Forecast

Advertisements
Track Severe Weather on mobile